METAR Data
IDs: Format: Raw Decoded Include TAF

Data at: 0047 UTC 24 May 2019

KHWD 232354Z 28011KT 10SM SCT100 19/12 A2985 RMK AO2 SLP115 T01940117 10206 20172 53006
No TAF found for KHWD

KBFL 232354Z 33009KT 10SM BKN100 BKN120 23/09 A2983 RMK AO2 SLP098 T02280094 10250 20189 56005

KBFL 232320Z 2400/2424 31010G15KT P6SM VCSH BKN050
  FM240400 34007KT P6SM SCT050 BKN100


KIFP 232253Z 16014KT 20SM BKN080 22/03 A2989

KIFP 232320Z 2400/2424 18014G22KT P6SM BKN100
  FM240300 16008KT P6SM BKN100
  FM241200 VRB05KT P6SM SCT100
  FM241800 21009KT P6SM FEW100 SCT200